Time;durP1;ratioP1;P1;durP2;ratioP2;P2;SDS_P1;SDS_P2;PMS_P1;PMS_P2;Temp;Humidity;BMP_temperature;BMP_pressure;BME280_temperature;BME280_humidity;BME280_pressure;Samples;Min_cycle;Max_cycle;Signal;HPM_P1;HPM_P2
2023/04/18 00:00:57;;;;;;;19.15;15.20;;;8.20;99.90;;;;;;4979404;28;20058;-53
2023/04/18 00:03:44;;;;;;;17.23;14.70;;;8.20;99.90;;;;;;4991868;28;20030;-46
2023/04/18 00:06:31;;;;;;;16.23;13.93;;;8.20;99.90;;;;;;4961505;28;20035;-47
2023/04/18 00:09:16;;;;;;;18.38;15.15;;;8.30;99.90;;;;;;4969599;28;20580;-50
2023/04/18 00:12:03;;;;;;;16.70;13.95;;;8.30;99.90;;;;;;4985155;28;20045;-53
2023/04/18 00:14:51;;;;;;;15.90;13.35;;;8.30;99.90;;;;;;4950714;28;20551;-47
2023/04/18 00:17:37;;;;;;;14.95;13.05;;;8.30;99.90;;;;;;4971604;28;20031;-50
2023/04/18 00:20:25;;;;;;;16.42;14.00;;;8.30;99.90;;;;;;4972000;28;20456;-50
2023/04/18 00:23:12;;;;;;;16.08;14.35;;;8.20;99.90;;;;;;4965641;28;20035;-50
2023/04/18 00:25:58;;;;;;;18.17;15.10;;;8.10;99.90;;;;;;4967624;28;20392;-53
2023/04/18 00:28:44;;;;;;;19.50;16.65;;;8.00;99.90;;;;;;4973632;28;20029;-47
2023/04/18 00:31:30;;;;;;;16.40;14.60;;;8.00;99.90;;;;;;4975533;28;20031;-49
2023/04/18 00:34:16;;;;;;;17.38;14.48;;;8.00;99.90;;;;;;4970315;28;20062;-48
2023/04/18 00:37:02;;;;;;;16.65;14.80;;;8.10;99.90;;;;;;4971187;28;20042;-50
2023/04/18 00:39:48;;;;;;;15.52;13.80;;;8.10;99.90;;;;;;4970473;28;20026;-51
2023/04/18 00:42:34;;;;;;;15.02;13.48;;;8.10;99.90;;;;;;4976575;28;20050;-48
2023/04/18 00:45:20;;;;;;;15.40;13.80;;;8.10;99.90;;;;;;4970839;28;20029;-49
2023/04/18 00:48:06;;;;;;;16.63;14.18;;;8.10;99.90;;;;;;4968223;28;20023;-50
2023/04/18 00:50:53;;;;;;;14.93;12.88;;;8.20;99.90;;;;;;4969249;28;20111;-50
2023/04/18 00:53:41;;;;;;;16.65;13.95;;;8.20;99.90;;;;;;4972232;28;20042;-54
2023/04/18 00:56:28;;;;;;;17.77;13.63;;;8.20;99.90;;;;;;4973705;28;20058;-49
2023/04/18 00:59:14;;;;;;;15.18;13.55;;;8.20;99.90;;;;;;4969155;28;20038;-50
2023/04/18 01:02:02;;;;;;;17.83;14.18;;;8.20;99.90;;;;;;4967956;28;20077;-51
2023/04/18 01:04:48;;;;;;;18.10;13.93;;;8.20;99.90;;;;;;4984802;28;20027;-50
2023/04/18 01:07:36;;;;;;;16.80;14.50;;;8.20;99.90;;;;;;4988877;28;20022;-49
2023/04/18 01:10:22;;;;;;;16.33;14.32;;;8.20;99.90;;;;;;4983494;28;20073;-52
2023/04/18 01:13:10;;;;;;;16.10;14.40;;;8.20;99.90;;;;;;4967916;28;20031;-51
2023/04/18 01:15:55;;;;;;;17.73;14.73;;;8.20;99.90;;;;;;4968488;28;20061;-47
2023/04/18 01:18:42;;;;;;;18.33;16.05;;;8.20;99.90;;;;;;4981952;28;20153;-48
2023/04/18 01:21:30;;;;;;;19.45;15.57;;;8.30;99.90;;;;;;4991954;28;20034;-49
2023/04/18 01:24:16;;;;;;;22.98;16.25;;;8.20;99.90;;;;;;4979923;28;20026;-49
2023/04/18 01:27:03;;;;;;;22.80;17.00;;;8.30;99.90;;;;;;4974994;28;20089;-51
2023/04/18 01:29:49;;;;;;;23.00;18.05;;;8.30;99.90;;;;;;4978054;28;20046;-52
2023/04/18 01:32:35;;;;;;;24.02;18.85;;;8.30;99.90;;;;;;4985003;28;20027;-51
2023/04/18 01:35:21;;;;;;;26.67;20.40;;;8.20;99.90;;;;;;4974619;28;20027;-55
2023/04/18 01:38:07;;;;;;;28.63;20.65;;;8.20;99.90;;;;;;4975175;28;20089;-55
2023/04/18 01:40:53;;;;;;;28.02;22.45;;;8.20;99.90;;;;;;4973051;28;20039;-48
2023/04/18 01:43:38;;;;;;;32.03;23.45;;;8.20;99.90;;;;;;4978101;28;20492;-49
2023/04/18 01:46:24;;;;;;;32.65;23.13;;;8.20;99.90;;;;;;4986234;28;20030;-47
2023/04/18 01:49:10;;;;;;;31.60;24.35;;;8.30;99.90;;;;;;4941679;29;20031;-49
2023/04/18 01:51:56;;;;;;;31.40;24.27;;;8.30;99.90;;;;;;4956296;28;20035;-48
2023/04/18 01:54:42;;;;;;;33.03;25.55;;;8.30;99.90;;;;;;4964549;28;20154;-48
2023/04/18 01:57:29;;;;;;;30.40;24.60;;;8.30;99.90;;;;;;4983434;28;20033;-49
2023/04/18 02:00:15;;;;;;;35.20;25.45;;;8.40;99.90;;;;;;4973717;28;20031;-50
2023/04/18 02:03:01;;;;;;;32.75;25.98;;;8.40;99.90;;;;;;4956304;28;20031;-51
2023/04/18 02:05:47;;;;;;;36.30;27.25;;;8.30;99.90;;;;;;4958542;28;20035;-53
2023/04/18 02:08:34;;;;;;;33.67;27.30;;;8.40;99.90;;;;;;4980778;28;20038;-51
2023/04/18 02:11:21;;;;;;;31.05;25.70;;;8.40;99.90;;;;;;4983353;28;20121;-54
2023/04/18 02:14:07;;;;;;;35.97;28.48;;;8.40;99.90;;;;;;4972136;28;20046;-51
2023/04/18 02:16:53;;;;;;;34.28;27.42;;;8.40;99.90;;;;;;4959618;28;20400;-46
2023/04/18 02:19:39;;;;;;;37.30;26.98;;;8.40;99.90;;;;;;4973491;28;20450;-50
2023/04/18 02:22:25;;;;;;;34.80;27.85;;;8.40;99.90;;;;;;4976097;28;20404;-46
2023/04/18 02:25:11;;;;;;;35.13;27.80;;;8.50;99.90;;;;;;4964999;28;20453;-46
2023/04/18 02:27:57;;;;;;;37.45;29.00;;;8.50;99.90;;;;;;4973640;28;20042;-52
2023/04/18 02:30:43;;;;;;;33.42;26.10;;;8.40;99.90;;;;;;4959279;28;20035;-48
2023/04/18 02:33:29;;;;;;;37.17;28.35;;;8.40;99.90;;;;;;4972329;28;20039;-48
2023/04/18 02:36:15;;;;;;;36.17;28.45;;;8.40;99.90;;;;;;4973989;28;20038;-51
2023/04/18 02:39:01;;;;;;;34.78;28.08;;;8.40;99.90;;;;;;4979586;28;20041;-50
2023/04/18 02:41:47;;;;;;;34.38;28.08;;;8.40;99.90;;;;;;4973954;28;20591;-51
2023/04/18 02:44:33;;;;;;;38.10;29.40;;;8.40;99.90;;;;;;4972563;28;20584;-53
2023/04/18 02:47:20;;;;;;;34.25;27.23;;;8.40;99.90;;;;;;4965439;28;20670;-50
2023/04/18 02:50:06;;;;;;;35.05;26.92;;;8.40;99.90;;;;;;4975902;28;20035;-46
2023/04/18 02:52:52;;;;;;;34.13;28.70;;;8.40;99.90;;;;;;4972986;28;20035;-46
2023/04/18 02:55:38;;;;;;;35.00;26.92;;;8.40;99.90;;;;;;4960160;28;20089;-47
2023/04/18 02:58:24;;;;;;;34.45;28.60;;;8.40;99.90;;;;;;4971891;28;20047;-46
2023/04/18 03:01:10;;;;;;;34.03;27.40;;;8.40;99.90;;;;;;4985162;28;20046;-56
2023/04/18 03:03:56;;;;;;;35.80;28.98;;;8.40;99.90;;;;;;4982286;28;20027;-55
2023/04/18 03:06:42;;;;;;;33.35;27.50;;;8.40;99.90;;;;;;4953686;28;20055;-51
2023/04/18 03:09:28;;;;;;;33.47;28.40;;;8.40;99.90;;;;;;4971969;28;20431;-56
2023/04/18 03:12:14;;;;;;;34.47;27.65;;;8.40;99.90;;;;;;4972348;28;20537;-56
2023/04/18 03:15:00;;;;;;;33.03;27.30;;;8.40;99.90;;;;;;4983865;28;20062;-51
2023/04/18 03:17:46;;;;;;;33.22;26.90;;;8.50;99.90;;;;;;4958810;28;20117;-49
2023/04/18 03:20:32;;;;;;;32.03;26.40;;;8.40;99.90;;;;;;4973356;28;20035;-51
2023/04/18 03:23:17;;;;;;;32.63;26.98;;;8.40;99.90;;;;;;4964531;28;20039;-46
2023/04/18 03:26:06;;;;;;;33.25;26.92;;;8.40;99.90;;;;;;4957519;28;20062;-46
2023/04/18 03:28:52;;;;;;;32.38;26.77;;;8.40;99.90;;;;;;4982461;28;20031;-48
2023/04/18 03:31:38;;;;;;;32.67;27.33;;;8.40;99.90;;;;;;4985399;28;20094;-51
2023/04/18 03:34:24;;;;;;;32.35;26.23;;;8.40;99.90;;;;;;4972498;28;20054;-47
2023/04/18 03:37:10;;;;;;;30.25;26.08;;;8.40;99.90;;;;;;4971925;28;20034;-46
2023/04/18 03:39:56;;;;;;;32.45;25.77;;;8.40;99.90;;;;;;4977376;28;20031;-47
2023/04/18 03:42:42;;;;;;;30.88;25.40;;;8.40;99.90;;;;;;4983528;28;20100;-47
2023/04/18 03:45:28;;;;;;;29.13;25.00;;;8.40;99.90;;;;;;4988520;28;20435;-48
2023/04/18 03:48:14;;;;;;;29.23;25.13;;;8.40;99.90;;;;;;4947216;28;20031;-50
2023/04/18 03:51:00;;;;;;;30.77;25.40;;;8.30;99.90;;;;;;4971438;28;20035;-52
2023/04/18 03:53:45;;;;;;;30.33;24.83;;;8.40;99.90;;;;;;4967983;28;20104;-53
2023/04/18 03:56:32;;;;;;;28.48;25.02;;;8.30;99.90;;;;;;4970001;28;20035;-46
2023/04/18 03:59:18;;;;;;;31.05;25.52;;;8.30;99.90;;;;;;4991626;28;20096;-46
2023/04/18 04:02:03;;;;;;;29.35;25.25;;;8.40;99.90;;;;;;4952585;29;20166;-45
2023/04/18 04:04:50;;;;;;;47.13;34.63;;;8.40;99.90;;;;;;4963483;28;20086;-49
2023/04/18 04:07:36;;;;;;;30.25;25.25;;;8.40;99.90;;;;;;4980352;28;20117;-47
2023/04/18 04:10:22;;;;;;;29.90;24.23;;;8.30;99.90;;;;;;4982208;28;20089;-48
2023/04/18 04:13:08;;;;;;;29.50;25.30;;;8.30;99.90;;;;;;4975600;28;20407;-49
2023/04/18 04:15:54;;;;;;;30.45;24.08;;;8.30;99.90;;;;;;4971499;28;20031;-49
2023/04/18 04:18:40;;;;;;;28.02;24.90;;;8.20;99.90;;;;;;4971776;28;20054;-46
2023/04/18 04:21:26;;;;;;;31.15;24.52;;;8.20;99.90;;;;;;4973819;28;20067;-48
2023/04/18 04:24:12;;;;;;;32.17;24.15;;;8.20;99.90;;;;;;4983398;28;20080;-50
2023/04/18 04:26:59;;;;;;;34.75;24.38;;;8.20;99.90;;;;;;4990681;28;20053;-48
2023/04/18 04:29:45;;;;;;;31.08;24.55;;;8.20;99.90;;;;;;4961522;28;20097;-52
2023/04/18 04:32:31;;;;;;;29.60;24.33;;;8.20;99.90;;;;;;4972629;28;20039;-47
2023/04/18 04:35:17;;;;;;;28.85;23.95;;;8.20;99.90;;;;;;4959805;28;20037;-51
2023/04/18 04:38:04;;;;;;;29.75;24.23;;;8.20;99.90;;;;;;4952937;28;20035;-51
2023/04/18 04:40:51;;;;;;;33.58;25.33;;;8.30;99.90;;;;;;4971210;28;20114;-51
2023/04/18 04:43:39;;;;;;;28.33;25.02;;;8.30;99.90;;;;;;4971526;28;20027;-49
2023/04/18 04:46:29;;;;;;;27.38;23.73;;;8.20;99.90;;;;;;4978541;28;20026;-52
2023/04/18 04:49:15;;;;;;;31.38;24.67;;;8.20;99.90;;;;;;4962889;28;20030;-48
2023/04/18 04:52:01;;;;;;;28.75;24.02;;;8.20;99.90;;;;;;4968965;28;20573;-51
2023/04/18 04:54:48;;;;;;;29.77;23.65;;;8.20;99.90;;;;;;4971551;28;20038;-49
2023/04/18 04:57:34;;;;;;;28.33;24.55;;;8.20;99.90;;;;;;4970302;28;20102;-49
2023/04/18 05:00:21;;;;;;;31.55;25.45;;;8.20;99.90;;;;;;4975947;28;20069;-52
2023/04/18 05:03:07;;;;;;;28.98;24.27;;;8.20;99.90;;;;;;4982187;28;20166;-54
2023/04/18 05:05:53;;;;;;;28.85;24.77;;;8.10;99.90;;;;;;4984575;28;20023;-51
2023/04/18 05:08:39;;;;;;;26.77;23.73;;;8.10;99.90;;;;;;4970156;28;20062;-56
2023/04/18 05:11:25;;;;;;;31.92;23.73;;;8.10;99.90;;;;;;4971440;28;20023;-54
2023/04/18 05:14:11;;;;;;;27.20;23.48;;;8.10;99.90;;;;;;4982787;28;20518;-54
2023/04/18 05:16:57;;;;;;;27.40;22.92;;;8.20;99.90;;;;;;4980524;28;20376;-54
2023/04/18 05:19:43;;;;;;;32.00;24.98;;;8.20;99.90;;;;;;4970531;28;20109;-55
2023/04/18 05:22:29;;;;;;;29.52;24.15;;;8.20;99.90;;;;;;4963341;28;20101;-50
2023/04/18 05:25:15;;;;;;;25.48;22.23;;;8.20;99.90;;;;;;4960271;28;20027;-49
2023/04/18 05:28:03;;;;;;;29.13;22.83;;;8.20;99.90;;;;;;4978176;28;20027;-47
2023/04/18 05:30:49;;;;;;;28.13;21.92;;;8.20;99.90;;;;;;4957981;28;20038;-47
2023/04/18 05:33:35;;;;;;;26.67;21.38;;;8.10;99.90;;;;;;4950162;28;20024;-52
2023/04/18 05:36:21;;;;;;;29.75;22.15;;;8.00;99.90;;;;;;4952378;28;20031;-54
2023/04/18 05:39:07;;;;;;;28.02;21.02;;;8.00;99.90;;;;;;4967298;28;20054;-55
2023/04/18 05:41:53;;;;;;;28.80;21.40;;;8.00;99.90;;;;;;4978137;28;20134;-54
2023/04/18 05:44:39;;;;;;;24.55;19.85;;;8.10;99.90;;;;;;4983299;28;20027;-51
2023/04/18 05:47:27;;;;;;;23.95;20.23;;;8.10;99.90;;;;;;4938325;29;20038;-51
2023/04/18 05:50:13;;;;;;;25.35;21.20;;;8.10;99.90;;;;;;4954503;28;20499;-49
2023/04/18 05:52:59;;;;;;;24.80;20.35;;;8.10;99.90;;;;;;4970321;28;20062;-54
2023/04/18 05:55:47;;;;;;;24.58;20.30;;;8.20;99.90;;;;;;4974493;28;20030;-52
2023/04/18 05:58:33;;;;;;;25.67;19.17;;;8.20;99.90;;;;;;4980723;28;20134;-51
2023/04/18 06:01:19;;;;;;;24.90;20.77;;;8.20;99.90;;;;;;4952884;28;20032;-49
2023/04/18 06:04:06;;;;;;;25.83;19.73;;;8.20;99.90;;;;;;4969079;28;20081;-48
2023/04/18 06:06:52;;;;;;;23.80;18.75;;;8.30;99.90;;;;;;4972931;28;20016;-55
2023/04/18 06:09:38;;;;;;;23.50;19.30;;;8.30;99.90;;;;;;4977458;28;20050;-57
2023/04/18 06:12:24;;;;;;;22.63;19.83;;;8.30;99.90;;;;;;4984458;28;20041;-56
2023/04/18 06:15:10;;;;;;;25.30;19.40;;;8.40;99.90;;;;;;4973468;28;20043;-53
2023/04/18 06:17:56;;;;;;;25.38;20.20;;;8.40;99.90;;;;;;4973591;28;20031;-52
2023/04/18 06:20:44;;;;;;;22.98;19.65;;;8.40;99.90;;;;;;4970898;28;20566;-51
2023/04/18 06:23:30;;;;;;;26.70;20.02;;;8.50;99.90;;;;;;4985987;28;20413;-53
2023/04/18 06:26:16;;;;;;;24.63;19.80;;;8.50;99.90;;;;;;4972578;28;20057;-54
2023/04/18 06:29:02;;;;;;;27.38;19.08;;;8.70;99.90;;;;;;4974499;28;20039;-55
2023/04/18 06:31:49;;;;;;;24.33;18.10;;;8.80;99.90;;;;;;4968563;28;20046;-54
2023/04/18 06:34:37;;;;;;;22.80;18.42;;;8.90;99.90;;;;;;4960184;28;20479;-54
2023/04/18 06:37:23;;;;;;;22.85;18.15;;;9.00;99.90;;;;;;4978824;28;20031;-49
2023/04/18 06:40:12;;;;;;;22.10;17.52;;;8.80;99.90;;;;;;4980258;28;20035;-52
2023/04/18 06:42:58;;;;;;;22.25;16.63;;;8.90;99.90;;;;;;4973576;28;20035;-51
2023/04/18 06:45:44;;;;;;;20.48;16.60;;;9.00;99.90;;;;;;4973219;28;20098;-52
2023/04/18 06:48:30;;;;;;;18.40;15.40;;;9.10;99.90;;;;;;4973303;28;20031;-52
2023/04/18 06:51:16;;;;;;;20.55;16.90;;;9.20;99.90;;;;;;4982127;28;20129;-56
2023/04/18 06:54:02;;;;;;;23.10;17.13;;;9.30;99.90;;;;;;4986791;28;20054;-52
2023/04/18 06:56:48;;;;;;;21.65;17.48;;;9.30;99.90;;;;;;4992423;28;20019;-54
2023/04/18 06:59:34;;;;;;;20.00;16.75;;;9.30;99.90;;;;;;4954404;28;20035;-51
2023/04/18 07:02:20;;;;;;;21.77;17.08;;;9.30;99.90;;;;;;4960331;28;20764;-52
2023/04/18 07:05:07;;;;;;;22.65;17.60;;;9.40;99.90;;;;;;4980001;28;20054;-52
2023/04/18 07:07:53;;;;;;;20.83;17.42;;;9.30;99.90;;;;;;4978931;28;20027;-51
2023/04/18 07:10:38;;;;;;;20.00;16.35;;;9.30;99.90;;;;;;4953688;28;20045;-50
2023/04/18 07:13:24;;;;;;;19.73;16.08;;;9.40;99.90;;;;;;4967065;28;20105;-54
2023/04/18 07:16:10;;;;;;;21.83;16.60;;;9.40;99.90;;;;;;4971338;28;20045;-52
2023/04/18 07:18:56;;;;;;;21.52;15.65;;;9.40;99.90;;;;;;4986369;28;20102;-54
2023/04/18 07:21:44;;;;;;;18.90;15.73;;;9.50;99.90;;;;;;4972486;28;20474;-58
2023/04/18 07:24:30;;;;;;;21.33;15.90;;;9.60;99.90;;;;;;4972502;28;20026;-52
2023/04/18 07:27:16;;;;;;;20.55;15.00;;;9.70;99.90;;;;;;4979168;28;20046;-56
2023/04/18 07:30:03;;;;;;;18.83;14.77;;;9.60;99.90;;;;;;4975697;28;20049;-51
2023/04/18 07:32:49;;;;;;;18.67;15.32;;;9.60;99.90;;;;;;4967320;28;20522;-54
2023/04/18 07:35:35;;;;;;;19.65;15.55;;;9.50;99.90;;;;;;4984533;28;20400;-56
2023/04/18 07:38:22;;;;;;;17.08;15.13;;;9.50;99.90;;;;;;4974375;28;20038;-56
2023/04/18 07:41:08;;;;;;;18.70;15.65;;;9.80;99.90;;;;;;4975966;28;20088;-49
2023/04/18 07:43:54;;;;;;;18.55;14.93;;;10.00;99.90;;;;;;4963630;28;20061;-54
2023/04/18 07:46:40;;;;;;;19.05;15.68;;;10.10;99.90;;;;;;4983584;28;20023;-54
2023/04/18 07:49:26;;;;;;;19.25;16.05;;;10.10;99.90;;;;;;4995442;28;20030;-55
2023/04/18 07:52:11;;;;;;;17.42;14.85;;;10.20;99.90;;;;;;4960935;28;20560;-52
2023/04/18 07:54:57;;;;;;;18.08;13.48;;;10.30;99.90;;;;;;4953645;28;20046;-56
2023/04/18 07:57:48;;;;;;;16.27;12.40;;;10.20;99.90;;;;;;4962699;28;20023;-54
2023/04/18 08:00:36;;;;;;;14.18;11.15;;;10.20;99.90;;;;;;4980598;28;20089;-55
2023/04/18 08:03:22;;;;;;;13.88;12.23;;;10.30;99.90;;;;;;4988813;28;20026;-53
2023/04/18 08:06:08;;;;;;;15.18;12.18;;;10.30;99.90;;;;;;4979224;28;20031;-55
2023/04/18 08:08:54;;;;;;;12.85;11.32;;;10.40;99.90;;;;;;4973355;28;20030;-56
2023/04/18 08:11:41;;;;;;;14.35;11.98;;;10.60;99.90;;;;;;4971067;28;20030;-55
2023/04/18 08:14:27;;;;;;;15.13;11.23;;;10.50;99.90;;;;;;4983911;28;20030;-57
2023/04/18 08:17:13;;;;;;;14.15;12.07;;;10.70;99.90;;;;;;4975358;28;21655;-51
2023/04/18 08:19:59;;;;;;;17.08;11.73;;;10.70;99.90;;;;;;4959112;28;20054;-52
2023/04/18 08:22:46;;;;;;;13.05;10.65;;;10.50;99.90;;;;;;4955482;28;20118;-54
2023/04/18 08:25:32;;;;;;;14.57;10.75;;;10.70;99.90;;;;;;4973399;28;20035;-52
2023/04/18 08:28:18;;;;;;;12.80;10.82;;;10.70;99.90;;;;;;4969759;28;20089;-51
2023/04/18 08:31:04;;;;;;;15.07;12.52;;;10.80;99.90;;;;;;4952472;28;20023;-50
2023/04/18 08:33:50;;;;;;;14.50;12.93;;;10.80;99.90;;;;;;4970847;28;20137;-52
2023/04/18 08:36:36;;;;;;;19.90;13.27;;;10.90;99.90;;;;;;4971582;28;20054;-51
2023/04/18 08:39:22;;;;;;;16.02;13.45;;;11.00;99.90;;;;;;4974118;28;20031;-48
2023/04/18 08:42:09;;;;;;;16.60;13.85;;;11.20;99.90;;;;;;4953884;28;20042;-56
2023/04/18 08:44:58;;;;;;;16.38;14.10;;;10.90;99.90;;;;;;4955114;28;20038;-46
2023/04/18 08:47:44;;;;;;;18.25;14.35;;;10.70;99.90;;;;;;4975150;28;20030;-53
2023/04/18 08:50:31;;;;;;;15.70;13.98;;;10.60;99.90;;;;;;4972168;28;20023;-53
2023/04/18 08:53:17;;;;;;;15.57;13.68;;;10.60;99.90;;;;;;4973802;28;20030;-55
2023/04/18 08:56:04;;;;;;;13.07;11.70;;;10.90;99.90;;;;;;4973391;28;20555;-50
2023/04/18 08:58:53;;;;;;;15.45;13.00;;;11.10;99.90;;;;;;4968100;28;20030;-48
2023/04/18 09:01:56;;;;;;;14.18;12.65;;;11.10;99.90;;;;;;4965240;28;20080;-53
2023/04/18 09:04:44;;;;;;;16.23;13.48;;;11.20;99.90;;;;;;4981439;28;20491;-52
2023/04/18 09:07:30;;;;;;;14.55;12.50;;;11.30;99.90;;;;;;4957013;28;20027;-51
2023/04/18 09:10:31;;;;;;;14.65;12.15;;;11.40;99.90;;;;;;4955854;28;20030;-55
2023/04/18 09:13:37;;;;;;;15.98;12.07;;;11.30;99.90;;;;;;4970570;28;21068;-59
2023/04/18 09:16:24;;;;;;;17.17;14.68;;;11.10;99.90;;;;;;4966901;28;20061;-47
2023/04/18 09:19:12;;;;;;;15.85;14.25;;;11.20;99.90;;;;;;4974545;28;20031;-55
2023/04/18 09:22:00;;;;;;;16.38;12.27;;;11.30;99.90;;;;;;4966403;28;20531;-51
2023/04/18 09:24:52;;;;;;;14.20;12.18;;;11.30;99.90;;;;;;4978674;28;20035;-47
2023/04/18 09:27:38;;;;;;;22.52;12.63;;;11.70;99.90;;;;;;4973898;28;20034;-50
2023/04/18 09:30:33;;;;;;;14.25;12.75;;;11.80;99.90;;;;;;4971006;28;20042;-50
2023/04/18 09:33:27;;;;;;;13.52;11.68;;;11.80;99.90;;;;;;4971402;28;20496;-49
2023/04/18 09:36:25;;;;;;;15.05;11.52;;;11.90;99.90;;;;;;4971824;28;20670;-49
2023/04/18 09:39:27;;;;;;;13.50;12.07;;;12.40;99.90;;;;;;4954254;28;20414;-49
2023/04/18 09:42:13;;;;;;;21.70;11.95;;;12.60;99.90;;;;;;4969970;28;20020;-47
2023/04/18 09:45:05;;;;;;;13.45;11.38;;;12.60;99.90;;;;;;4974721;28;20130;-51
2023/04/18 09:47:52;;;;;;;14.60;12.07;;;12.60;99.90;;;;;;4980829;28;20026;-56
2023/04/18 09:50:39;;;;;;;14.68;11.85;;;12.40;99.90;;;;;;4969196;28;20093;-52
2023/04/18 09:53:25;;;;;;;16.00;11.70;;;12.50;99.90;;;;;;4960338;28;20035;-53
2023/04/18 09:56:23;;;;;;;14.05;11.80;;;12.80;99.90;;;;;;4986209;28;20029;-52
2023/04/18 09:59:10;;;;;;;28.75;11.43;;;13.00;99.90;;;;;;4966105;28;20121;-54
2023/04/18 10:01:58;;;;;;;15.90;12.75;;;12.80;99.90;;;;;;4975540;28;20031;-52
2023/04/18 10:04:45;;;;;;;16.85;12.20;;;12.80;99.90;;;;;;4968826;28;20078;-53
2023/04/18 10:07:32;;;;;;;13.93;12.15;;;12.40;99.90;;;;;;4976424;28;20042;-54
2023/04/18 10:10:18;;;;;;;15.27;12.95;;;12.10;99.90;;;;;;4984963;28;20038;-51
2023/04/18 10:13:07;;;;;;;15.45;12.80;;;12.00;99.90;;;;;;4982806;28;20107;-49
2023/04/18 10:15:54;;;;;;;14.23;12.07;;;11.70;99.90;;;;;;4973851;28;20515;-49
2023/04/18 10:18:41;;;;;;;14.38;12.40;;;11.80;99.90;;;;;;4964856;28;20395;-52
2023/04/18 10:21:28;;;;;;;16.30;12.30;;;11.80;99.90;;;;;;4975721;28;20034;-50
2023/04/18 10:24:49;;;;;;;14.23;12.02;;;11.70;99.90;;;;;;4985691;28;20100;-54
2023/04/18 10:27:47;;;;;;;15.13;13.40;;;11.90;99.90;;;;;;4964237;28;20035;-55
2023/04/18 10:30:42;;;;;;;15.02;12.35;;;12.00;99.90;;;;;;4952975;29;20042;-54
2023/04/18 10:33:37;;;;;;;14.82;12.60;;;12.00;99.90;;;;;;4969145;28;20034;-49
2023/04/18 10:36:23;;;;;;;14.20;12.00;;;12.10;99.90;;;;;;4979833;28;20132;-52
2023/04/18 10:39:21;;;;;;;13.18;11.77;;;12.10;99.90;;;;;;4988906;28;20114;-52
2023/04/18 10:42:07;;;;;;;13.95;12.23;;;12.20;99.90;;;;;;4982897;28;20019;-50
2023/04/18 10:45:25;;;;;;;14.60;12.13;;;12.10;99.90;;;;;;4973899;28;20026;-54
2023/04/18 10:48:28;;;;;;;18.35;12.98;;;12.20;99.90;;;;;;4979563;28;20503;-58
2023/04/18 10:51:15;;;;;;;17.20;13.65;;;12.20;99.90;;;;;;4984403;28;20584;-56
2023/04/18 10:54:03;;;;;;;17.75;13.98;;;12.10;99.90;;;;;;4972592;28;20440;-52
2023/04/18 10:57:03;;;;;;;14.93;13.23;;;12.10;99.90;;;;;;4973456;28;20023;-56
2023/04/18 10:59:50;;;;;;;15.10;13.13;;;12.30;99.90;;;;;;4978986;28;20030;-55
2023/04/18 11:02:37;;;;;;;14.70;13.02;;;12.30;99.90;;;;;;4977981;28;20034;-52
2023/04/18 11:05:28;;;;;;;15.23;13.63;;;12.00;99.90;;;;;;4993128;28;20077;-50
2023/04/18 11:08:23;;;;;;;17.77;13.93;;;12.10;99.90;;;;;;4965455;28;20038;-54
2023/04/18 11:11:10;;;;;;;;;;;12.30;99.90;;;;;;4974576;28;20395;-53
2023/04/18 11:13:57;;;;;;;16.00;13.40;;;12.20;99.90;;;;;;4981261;28;20286;-54
2023/04/18 11:16:43;;;;;;;16.92;12.95;;;12.40;99.90;;;;;;4985797;28;20396;-56
2023/04/18 11:19:29;;;;;;;16.38;13.88;;;12.50;99.90;;;;;;4973260;28;20039;-56
2023/04/18 11:22:15;;;;;;;15.73;13.48;;;12.60;99.90;;;;;;4974130;28;20423;-57
2023/04/18 11:25:07;;;;;;;15.57;13.55;;;12.50;99.90;;;;;;4975936;28;20015;-55
2023/04/18 11:27:56;;;;;;;15.68;13.15;;;12.50;99.90;;;;;;4960734;28;20038;-52
2023/04/18 11:30:42;;;;;;;15.50;13.82;;;12.30;99.90;;;;;;4972407;28;20027;-52
2023/04/18 11:33:28;;;;;;;18.67;15.35;;;12.00;99.90;;;;;;4972726;28;20035;-54
2023/04/18 11:36:14;;;;;;;17.52;14.00;;;12.00;99.90;;;;;;4974474;28;20109;-53
2023/04/18 11:39:00;;;;;;;15.93;14.20;;;12.00;99.90;;;;;;4975171;28;20479;-50
2023/04/18 11:41:49;;;;;;;16.70;14.13;;;12.10;99.90;;;;;;4953807;29;20615;-51
2023/04/18 11:44:38;;;;;;;15.63;13.98;;;12.10;99.90;;;;;;4958086;28;20034;-55
2023/04/18 11:47:25;;;;;;;16.35;14.07;;;11.90;99.90;;;;;;4970264;28;20496;-50
2023/04/18 11:50:12;;;;;;;18.27;14.93;;;11.80;99.90;;;;;;4977841;28;20026;-51
2023/04/18 11:52:58;;;;;;;15.65;14.05;;;11.70;99.90;;;;;;4979683;28;20084;-53
2023/04/18 11:55:54;;;;;;;17.58;15.50;;;11.70;99.90;;;;;;4978315;28;20031;-52
2023/04/18 11:58:41;;;;;;;18.15;14.63;;;11.80;99.90;;;;;;4974136;28;20026;-51
2023/04/18 12:01:27;;;;;;;17.77;15.52;;;11.80;99.90;;;;;;4977604;28;20046;-52
2023/04/18 12:04:15;;;;;;;16.17;14.40;;;11.90;99.90;;;;;;4983392;28;20023;-54
2023/04/18 12:07:01;;;;;;;16.33;14.63;;;11.90;99.90;;;;;;4952061;29;20027;-56
2023/04/18 12:09:51;;;;;;;18.85;15.25;;;11.80;99.90;;;;;;4959777;28;20054;-59
2023/04/18 12:12:46;;;;;;;16.40;14.32;;;11.90;99.90;;;;;;4969900;28;20042;-57
2023/04/18 12:15:32;;;;;;;18.27;13.88;;;12.00;99.90;;;;;;4983064;28;20431;-59
2023/04/18 12:18:21;;;;;;;15.98;14.00;;;12.00;99.90;;;;;;4987696;28;20108;-58
2023/04/18 12:21:07;;;;;;;16.83;14.27;;;12.10;99.90;;;;;;4973974;28;20046;-56
2023/04/18 12:23:54;;;;;;;16.27;13.63;;;12.20;99.90;;;;;;4972239;28;20416;-58
2023/04/18 12:26:44;;;;;;;18.17;13.93;;;12.40;99.90;;;;;;4971591;28;20110;-61
2023/04/18 12:29:30;;;;;;;17.25;14.07;;;12.40;99.90;;;;;;4981884;28;20491;-57
2023/04/18 12:32:17;;;;;;;16.17;13.32;;;12.30;99.90;;;;;;4980890;28;20043;-55
2023/04/18 12:35:04;;;;;;;16.40;14.70;;;12.20;99.90;;;;;;4952426;28;20522;-57
2023/04/18 12:37:53;;;;;;;15.63;13.60;;;12.20;99.90;;;;;;4955350;28;20039;-57
2023/04/18 12:40:39;;;;;;;17.15;14.40;;;12.30;99.90;;;;;;4974410;28;20042;-53
2023/04/18 12:43:25;;;;;;;16.92;14.05;;;12.30;99.90;;;;;;4977394;28;20058;-55
2023/04/18 12:46:11;;;;;;;18.42;15.25;;;12.20;99.90;;;;;;4970226;28;20103;-55
2023/04/18 12:48:57;;;;;;;20.83;15.63;;;12.10;99.90;;;;;;4970421;28;20054;-56
2023/04/18 12:51:43;;;;;;;19.40;14.95;;;12.10;99.90;;;;;;4969401;28;20106;-53
2023/04/18 12:54:29;;;;;;;18.38;15.40;;;12.20;99.90;;;;;;4983014;28;20030;-53
2023/04/18 12:57:16;;;;;;;19.23;14.75;;;12.20;99.90;;;;;;4971219;28;20039;-53
2023/04/18 13:00:09;;;;;;;19.80;15.32;;;12.40;99.90;;;;;;4968452;28;20038;-58
2023/04/18 13:02:56;;;;;;;17.25;14.25;;;12.50;99.90;;;;;;4978672;28;20058;-56
2023/04/18 13:05:42;;;;;;;21.70;15.02;;;12.50;99.90;;;;;;4990628;28;20566;-57
2023/04/18 13:08:28;;;;;;;18.88;14.88;;;12.60;99.90;;;;;;4954681;28;20062;-58
2023/04/18 13:11:14;;;;;;;16.27;14.20;;;12.60;99.90;;;;;;4967415;28;20049;-55
2023/04/18 13:14:00;;;;;;;18.17;13.98;;;12.70;99.90;;;;;;4971151;28;20106;-58
2023/04/18 13:16:47;;;;;;;17.83;14.43;;;12.80;99.90;;;;;;4970038;28;20042;-53
2023/04/18 13:19:33;;;;;;;18.52;15.52;;;12.80;99.90;;;;;;4971084;28;20051;-54
2023/04/18 13:22:20;;;;;;;15.93;14.02;;;12.80;99.90;;;;;;4966101;28;20576;-57
2023/04/18 13:25:09;;;;;;;18.02;16.08;;;12.90;99.90;;;;;;4956272;28;20035;-55
2023/04/18 13:27:56;;;;;;;20.67;15.40;;;12.80;99.90;;;;;;4966624;28;20031;-56
2023/04/18 13:30:42;;;;;;;18.85;15.13;;;12.90;99.90;;;;;;4966540;28;20401;-50
2023/04/18 13:33:28;;;;;;;17.38;14.52;;;12.80;99.90;;;;;;4965751;28;20022;-53
2023/04/18 13:36:14;;;;;;;19.45;15.65;;;12.90;99.90;;;;;;4968180;28;20089;-54
2023/04/18 13:39:00;;;;;;;18.33;14.05;;;12.90;99.90;;;;;;4972473;28;20027;-51
2023/04/18 13:41:46;;;;;;;15.70;13.88;;;12.90;99.90;;;;;;4973476;28;20038;-50
2023/04/18 13:44:34;;;;;;;16.08;14.18;;;12.90;99.90;;;;;;4966606;28;20019;-52
2023/04/18 13:47:20;;;;;;;16.58;14.15;;;12.80;99.90;;;;;;4968604;28;20094;-48
2023/04/18 13:50:07;;;;;;;16.52;14.52;;;12.60;99.90;;;;;;4946326;28;20033;-51
2023/04/18 13:52:53;;;;;;;16.63;14.82;;;12.50;99.90;;;;;;4966646;28;20045;-47
2023/04/18 13:55:39;;;;;;;24.17;15.35;;;12.40;99.90;;;;;;4967737;28;20165;-49
2023/04/18 13:58:25;;;;;;;20.27;15.15;;;12.40;99.90;;;;;;4965822;28;20031;-50
2023/04/18 14:01:12;;;;;;;17.67;15.13;;;12.40;99.90;;;;;;4970572;28;20027;-47
2023/04/18 14:03:58;;;;;;;18.77;14.82;;;12.40;99.90;;;;;;4963507;28;20031;-51
2023/04/18 14:06:44;;;;;;;20.88;16.65;;;12.30;99.90;;;;;;4967587;28;20035;-50
2023/04/18 14:09:30;;;;;;;19.95;15.82;;;12.30;99.90;;;;;;4966480;28;20023;-48
2023/04/18 14:12:16;;;;;;;18.75;15.95;;;12.30;99.90;;;;;;4970657;28;20031;-51
2023/04/18 14:15:03;;;;;;;20.05;16.27;;;12.20;99.90;;;;;;4966771;28;20035;-50